BAW8648 LTFJ-LGAV
Flight info
| Callsign | BAW8648 |
|---|---|
| Flight time | 0h 53m |
| Altitude | 36000 |
| Route | IVGUS1K/24R IVGUS UY226 BIG UN604 OGSIL OGSIL1W |
| Aircraft | A320/M-SDE3FGIJ1KRWXY/SB1 |
Departure
| Time | 2026-05-05 15:23 |
|---|---|
| Airport | Istanbul Sabiha Gökçen International Airport (LTFJ) |
Arrival
| Time | 2026-05-05 16:16 |
|---|---|
| Airport | Athens Eleftherios Venizelos International Airport (LGAV) |
| Time | Latitude | Longitude | Altitude | Speed | Heading |
|---|---|---|---|---|---|
| 2026-05-05 14:45 | 40.90505 | 29.31355 | 321 ft | 0 kts | 334° |
| 2026-05-05 15:13 | 40.90501 | 29.31358 | 321 ft | 3 kts | 334° |
| 2026-05-05 15:14 | 40.90477 | 29.31373 | 321 ft | 4 kts | 329° |
| 2026-05-05 15:14 | 40.90456 | 29.31394 | 321 ft | 4 kts | 308° |
| 2026-05-05 15:14 | 40.90446 | 29.31423 | 321 ft | 4 kts | 259° |
| 2026-05-05 15:14 | 40.90449 | 29.31437 | 321 ft | 1 kts | 245° |
| 2026-05-05 15:15 | 40.90449 | 29.31438 | 321 ft | 0 kts | 245° |
| 2026-05-05 15:17 | 40.90445 | 29.31431 | 321 ft | 3 kts | 231° |
| 2026-05-05 15:18 | 40.90411 | 29.31438 | 321 ft | 7 kts | 157° |
| 2026-05-05 15:18 | 40.90356 | 29.31473 | 321 ft | 10 kts | 154° |
| 2026-05-05 15:18 | 40.90283 | 29.31492 | 319 ft | 12 kts | 204° |
| 2026-05-05 15:18 | 40.90238 | 29.31390 | 320 ft | 15 kts | 244° |
| 2026-05-05 15:19 | 40.90188 | 29.31255 | 321 ft | 18 kts | 244° |
| 2026-05-05 15:19 | 40.90129 | 29.31094 | 319 ft | 21 kts | 244° |
| 2026-05-05 15:19 | 40.90060 | 29.30907 | 320 ft | 24 kts | 244° |
| 2026-05-05 15:19 | 40.89983 | 29.30697 | 321 ft | 27 kts | 244° |
| 2026-05-05 15:20 | 40.89898 | 29.30466 | 320 ft | 29 kts | 244° |
| 2026-05-05 15:20 | 40.89810 | 29.30226 | 319 ft | 25 kts | 244° |
| 2026-05-05 15:20 | 40.89750 | 29.30061 | 320 ft | 20 kts | 244° |
| 2026-05-05 15:20 | 40.89684 | 29.29884 | 321 ft | 23 kts | 245° |
| 2026-05-05 15:21 | 40.89611 | 29.29685 | 321 ft | 25 kts | 244° |
| 2026-05-05 15:21 | 40.89530 | 29.29464 | 321 ft | 28 kts | 244° |
| 2026-05-05 15:21 | 40.89459 | 29.29281 | 319 ft | 13 kts | 229° |
| 2026-05-05 15:21 | 40.89377 | 29.29263 | 320 ft | 11 kts | 156° |
| 2026-05-05 15:22 | 40.89301 | 29.29309 | 320 ft | 11 kts | 154° |
| 2026-05-05 15:22 | 40.89292 | 29.29389 | 322 ft | 12 kts | 63° |
| 2026-05-05 15:22 | 40.89350 | 29.29545 | 321 ft | 35 kts | 64° |
| 2026-05-05 15:22 | 40.89563 | 29.30125 | 321 ft | 104 kts | 64° |
| 2026-05-05 15:23 | 40.89965 | 29.31214 | 320 ft | 157 kts | 64° |
| 2026-05-05 15:23 | 40.90450 | 29.32534 | 925 ft | 157 kts | 63° |
| 2026-05-05 15:23 | 40.90926 | 29.33822 | 1685 ft | 154 kts | 63° |
| 2026-05-05 15:23 | 40.91397 | 29.35097 | 2310 ft | 155 kts | 64° |
| 2026-05-05 15:24 | 40.91876 | 29.36389 | 2887 ft | 158 kts | 63° |
| 2026-05-05 15:24 | 40.92356 | 29.37698 | 3516 ft | 158 kts | 63° |
| 2026-05-05 15:24 | 40.92847 | 29.39027 | 4034 ft | 166 kts | 63° |
| 2026-05-05 15:24 | 40.93360 | 29.40478 | 4415 ft | 185 kts | 70° |
| 2026-05-05 15:25 | 40.93302 | 29.42252 | 4734 ft | 210 kts | 114° |
| 2026-05-05 15:25 | 40.92261 | 29.43719 | 5118 ft | 235 kts | 148° |
| 2026-05-05 15:25 | 40.90754 | 29.44809 | 5598 ft | 259 kts | 154° |
| 2026-05-05 15:25 | 40.89060 | 29.45852 | 6305 ft | 274 kts | 155° |
| 2026-05-05 15:26 | 40.87302 | 29.46891 | 7236 ft | 279 kts | 156° |
| 2026-05-05 15:26 | 40.85435 | 29.47646 | 8132 ft | 285 kts | 175° |
| 2026-05-05 15:26 | 40.83458 | 29.47367 | 9041 ft | 291 kts | 200° |
| 2026-05-05 15:26 | 40.81732 | 29.45993 | 9963 ft | 293 kts | 226° |
| 2026-05-05 15:27 | 40.80601 | 29.43763 | 10820 ft | 298 kts | 248° |
| 2026-05-05 15:27 | 40.79823 | 29.41110 | 11164 ft | 322 kts | 251° |
| 2026-05-05 15:27 | 40.79041 | 29.38243 | 11635 ft | 339 kts | 252° |
| 2026-05-05 15:27 | 40.78248 | 29.35277 | 12390 ft | 346 kts | 252° |
| 2026-05-05 15:28 | 40.77439 | 29.32265 | 13219 ft | 350 kts | 251° |
| 2026-05-05 15:28 | 40.76613 | 29.29218 | 14025 ft | 355 kts | 251° |
| 2026-05-05 15:28 | 40.75772 | 29.26143 | 14823 ft | 359 kts | 251° |
| 2026-05-05 15:28 | 40.74911 | 29.23033 | 15598 ft | 363 kts | 251° |
| 2026-05-05 15:29 | 40.74038 | 29.19888 | 16345 ft | 367 kts | 251° |
| 2026-05-05 15:29 | 40.73154 | 29.16712 | 17063 ft | 371 kts | 251° |
| 2026-05-05 15:29 | 40.72260 | 29.13505 | 17765 ft | 375 kts | 250° |
| 2026-05-05 15:29 | 40.71356 | 29.10264 | 18463 ft | 379 kts | 250° |
| 2026-05-05 15:30 | 40.70443 | 29.06991 | 19166 ft | 383 kts | 250° |
| 2026-05-05 15:30 | 40.69520 | 29.03681 | 19888 ft | 387 kts | 251° |
| 2026-05-05 15:30 | 40.68590 | 29.00343 | 20598 ft | 391 kts | 251° |
| 2026-05-05 15:30 | 40.67645 | 28.96955 | 21269 ft | 395 kts | 251° |
| 2026-05-05 15:31 | 40.66694 | 28.93547 | 21903 ft | 399 kts | 251° |
| 2026-05-05 15:31 | 40.65731 | 28.90105 | 22509 ft | 403 kts | 251° |
| 2026-05-05 15:31 | 40.64752 | 28.86627 | 23114 ft | 407 kts | 251° |
| 2026-05-05 15:31 | 40.63761 | 28.83124 | 23730 ft | 410 kts | 250° |
| 2026-05-05 15:32 | 40.62775 | 28.79631 | 24324 ft | 414 kts | 251° |
| 2026-05-05 15:32 | 40.61755 | 28.76012 | 24941 ft | 418 kts | 251° |
| 2026-05-05 15:32 | 40.60741 | 28.72413 | 25531 ft | 421 kts | 251° |
| 2026-05-05 15:32 | 40.59718 | 28.68782 | 26114 ft | 425 kts | 251° |
| 2026-05-05 15:33 | 40.58685 | 28.65123 | 26669 ft | 428 kts | 251° |
| 2026-05-05 15:33 | 40.57656 | 28.61494 | 27231 ft | 431 kts | 250° |
| 2026-05-05 15:33 | 40.56599 | 28.57783 | 27757 ft | 434 kts | 250° |
| 2026-05-05 15:33 | 40.55519 | 28.54004 | 28296 ft | 437 kts | 250° |
| 2026-05-05 15:34 | 40.54460 | 28.50295 | 28780 ft | 440 kts | 250° |
| 2026-05-05 15:34 | 40.53383 | 28.46514 | 29258 ft | 443 kts | 250° |
| 2026-05-05 15:34 | 40.52296 | 28.42693 | 29710 ft | 446 kts | 250° |
| 2026-05-05 15:34 | 40.51229 | 28.38957 | 30132 ft | 449 kts | 250° |
| 2026-05-05 15:35 | 40.50126 | 28.35108 | 30553 ft | 451 kts | 250° |
| 2026-05-05 15:35 | 40.49017 | 28.31240 | 30960 ft | 454 kts | 250° |
| 2026-05-05 15:35 | 40.47902 | 28.27350 | 31399 ft | 455 kts | 250° |
| 2026-05-05 15:35 | 40.46787 | 28.23471 | 31966 ft | 453 kts | 250° |
| 2026-05-05 15:36 | 40.45673 | 28.19607 | 32525 ft | 451 kts | 250° |
| 2026-05-05 15:36 | 40.44561 | 28.15761 | 33076 ft | 449 kts | 251° |
| 2026-05-05 15:36 | 40.43456 | 28.11938 | 33603 ft | 448 kts | 251° |
| 2026-05-05 15:36 | 40.42352 | 28.08126 | 34122 ft | 446 kts | 251° |
| 2026-05-05 15:37 | 40.41250 | 28.04326 | 34641 ft | 445 kts | 251° |
| 2026-05-05 15:37 | 40.40151 | 28.00543 | 35128 ft | 444 kts | 251° |
| 2026-05-05 15:37 | 40.39050 | 27.96761 | 35608 ft | 443 kts | 251° |
| 2026-05-05 15:37 | 40.37949 | 27.92984 | 36062 ft | 443 kts | 251° |
| 2026-05-05 15:38 | 40.36851 | 27.89210 | 36482 ft | 443 kts | 251° |
| 2026-05-05 15:38 | 40.35753 | 27.85438 | 36887 ft | 443 kts | 251° |
| 2026-05-05 15:38 | 40.34655 | 27.81672 | 37369 ft | 441 kts | 251° |
| 2026-05-05 15:38 | 40.33547 | 27.77887 | 37851 ft | 438 kts | 251° |
| 2026-05-05 15:39 | 40.32469 | 27.74210 | 38032 ft | 438 kts | 251° |
| 2026-05-05 15:39 | 40.30280 | 27.66765 | 38072 ft | 437 kts | 251° |
| 2026-05-05 15:40 | 40.28089 | 27.59330 | 38072 ft | 438 kts | 251° |
| 2026-05-05 15:40 | 40.25898 | 27.51896 | 38072 ft | 437 kts | 251° |
| 2026-05-05 15:41 | 40.24059 | 27.45674 | 38073 ft | 437 kts | 250° |
| 2026-05-05 15:41 | 40.21854 | 27.38259 | 38073 ft | 437 kts | 250° |
| 2026-05-05 15:42 | 40.19194 | 27.30368 | 38072 ft | 440 kts | 239° |
| 2026-05-05 15:42 | 40.15920 | 27.25200 | 38069 ft | 444 kts | 223° |
| 2026-05-05 15:43 | 40.10939 | 27.20397 | 38064 ft | 446 kts | 217° |
| 2026-05-05 15:43 | 40.05887 | 27.15777 | 38062 ft | 446 kts | 217° |
| 2026-05-05 15:44 | 40.00808 | 27.11126 | 38061 ft | 446 kts | 217° |
| 2026-05-05 15:44 | 39.95732 | 27.06464 | 38059 ft | 446 kts | 217° |
| 2026-05-05 15:45 | 39.90651 | 27.01808 | 38060 ft | 447 kts | 217° |
| 2026-05-05 15:45 | 39.85566 | 26.97166 | 38060 ft | 446 kts | 217° |
| 2026-05-05 15:46 | 39.80472 | 26.92529 | 38059 ft | 448 kts | 217° |
| 2026-05-05 15:46 | 39.75365 | 26.87894 | 38061 ft | 448 kts | 217° |
| 2026-05-05 15:47 | 39.70252 | 26.83261 | 38063 ft | 448 kts | 217° |
| 2026-05-05 15:47 | 39.65138 | 26.78642 | 38064 ft | 448 kts | 217° |
| 2026-05-05 15:48 | 39.60022 | 26.74018 | 38066 ft | 448 kts | 217° |
| 2026-05-05 15:48 | 39.54904 | 26.69402 | 38067 ft | 448 kts | 217° |
| 2026-05-05 15:49 | 39.49787 | 26.64793 | 38070 ft | 449 kts | 217° |
| 2026-05-05 15:49 | 39.44659 | 26.60185 | 38071 ft | 449 kts | 217° |
| 2026-05-05 15:50 | 39.39530 | 26.55589 | 38070 ft | 448 kts | 217° |
| 2026-05-05 15:50 | 39.34401 | 26.51002 | 38069 ft | 448 kts | 217° |
| 2026-05-05 15:51 | 39.29043 | 26.46859 | 38070 ft | 450 kts | 212° |
| 2026-05-05 15:51 | 39.23787 | 26.42632 | 38068 ft | 446 kts | 222° |
| 2026-05-05 15:52 | 39.19581 | 26.36856 | 38065 ft | 441 kts | 234° |
| 2026-05-05 15:52 | 39.15746 | 26.30680 | 38063 ft | 441 kts | 234° |
| 2026-05-05 15:53 | 39.11901 | 26.24518 | 38065 ft | 442 kts | 234° |
| 2026-05-05 15:53 | 39.08042 | 26.18361 | 38065 ft | 442 kts | 233° |
| 2026-05-05 15:54 | 39.04187 | 26.12209 | 38064 ft | 442 kts | 234° |
| 2026-05-05 15:54 | 39.00329 | 26.06060 | 38067 ft | 441 kts | 233° |
| 2026-05-05 15:55 | 38.96464 | 25.99934 | 38066 ft | 441 kts | 233° |
| 2026-05-05 15:55 | 38.92598 | 25.93813 | 37909 ft | 441 kts | 234° |
| 2026-05-05 15:55 | 38.90671 | 25.90765 | 37664 ft | 440 kts | 234° |
| 2026-05-05 15:56 | 38.88740 | 25.87713 | 37412 ft | 439 kts | 234° |
| 2026-05-05 15:56 | 38.86813 | 25.84670 | 37160 ft | 439 kts | 234° |
| 2026-05-05 15:56 | 38.84886 | 25.81628 | 36911 ft | 439 kts | 234° |
| 2026-05-05 15:56 | 38.82963 | 25.78587 | 36661 ft | 439 kts | 234° |
| 2026-05-05 15:57 | 38.81043 | 25.75551 | 36226 ft | 439 kts | 234° |
| 2026-05-05 15:57 | 38.79108 | 25.72497 | 35477 ft | 443 kts | 234° |
| 2026-05-05 15:57 | 38.77150 | 25.69416 | 34671 ft | 448 kts | 234° |
| 2026-05-05 15:57 | 38.75170 | 25.66308 | 33812 ft | 453 kts | 234° |
| 2026-05-05 15:58 | 38.73166 | 25.63165 | 32909 ft | 458 kts | 234° |
| 2026-05-05 15:58 | 38.71139 | 25.59993 | 32089 ft | 461 kts | 234° |
| 2026-05-05 15:58 | 38.69125 | 25.56844 | 31583 ft | 455 kts | 234° |
| 2026-05-05 15:58 | 38.67128 | 25.53720 | 30978 ft | 452 kts | 234° |
| 2026-05-05 15:59 | 38.65148 | 25.50623 | 30389 ft | 448 kts | 234° |
| 2026-05-05 15:59 | 38.63184 | 25.47554 | 29794 ft | 444 kts | 234° |
| 2026-05-05 15:59 | 38.61234 | 25.44515 | 29214 ft | 440 kts | 234° |
| 2026-05-05 15:59 | 38.59298 | 25.41504 | 28630 ft | 436 kts | 234° |
| 2026-05-05 16:00 | 38.57377 | 25.38522 | 28052 ft | 432 kts | 233° |
| 2026-05-05 16:00 | 38.55478 | 25.35572 | 27483 ft | 428 kts | 233° |
| 2026-05-05 16:00 | 38.53597 | 25.32646 | 26919 ft | 424 kts | 233° |
| 2026-05-05 16:00 | 38.51735 | 25.29749 | 26372 ft | 420 kts | 233° |
| 2026-05-05 16:01 | 38.49895 | 25.26886 | 25841 ft | 416 kts | 233° |
| 2026-05-05 16:01 | 38.48066 | 25.24045 | 25310 ft | 412 kts | 233° |
| 2026-05-05 16:01 | 38.46256 | 25.21238 | 24810 ft | 407 kts | 233° |
| 2026-05-05 16:01 | 38.44463 | 25.18462 | 24301 ft | 404 kts | 233° |
| 2026-05-05 16:02 | 38.42683 | 25.15716 | 23834 ft | 399 kts | 233° |
| 2026-05-05 16:02 | 38.40921 | 25.13002 | 23360 ft | 396 kts | 233° |
| 2026-05-05 16:02 | 38.39171 | 25.10311 | 22892 ft | 392 kts | 233° |
| 2026-05-05 16:02 | 38.37441 | 25.07647 | 22439 ft | 389 kts | 233° |
| 2026-05-05 16:03 | 38.35723 | 25.04997 | 21962 ft | 385 kts | 233° |
| 2026-05-05 16:03 | 38.34024 | 25.02376 | 21492 ft | 382 kts | 233° |
| 2026-05-05 16:03 | 38.32338 | 24.99778 | 21006 ft | 379 kts | 233° |
| 2026-05-05 16:03 | 38.30663 | 24.97196 | 20522 ft | 376 kts | 233° |
| 2026-05-05 16:04 | 38.29003 | 24.94639 | 20012 ft | 373 kts | 233° |
| 2026-05-05 16:04 | 38.27356 | 24.92107 | 19525 ft | 371 kts | 233° |
| 2026-05-05 16:04 | 38.25715 | 24.89591 | 19013 ft | 368 kts | 233° |
| 2026-05-05 16:04 | 38.24085 | 24.87092 | 18509 ft | 366 kts | 232° |
| 2026-05-05 16:05 | 38.22487 | 24.84642 | 17999 ft | 364 kts | 232° |
| 2026-05-05 16:05 | 38.20877 | 24.82174 | 17514 ft | 361 kts | 232° |
| 2026-05-05 16:05 | 38.19276 | 24.79721 | 16995 ft | 360 kts | 232° |
| 2026-05-05 16:05 | 38.17679 | 24.77282 | 16436 ft | 359 kts | 232° |
| 2026-05-05 16:06 | 38.16087 | 24.74858 | 15940 ft | 356 kts | 232° |
| 2026-05-05 16:06 | 38.14506 | 24.72451 | 15427 ft | 354 kts | 232° |
| 2026-05-05 16:06 | 38.12931 | 24.70049 | 14911 ft | 352 kts | 232° |
| 2026-05-05 16:06 | 38.11370 | 24.67664 | 14402 ft | 350 kts | 232° |
| 2026-05-05 16:07 | 38.09816 | 24.65294 | 13898 ft | 348 kts | 232° |
| 2026-05-05 16:07 | 38.08267 | 24.62937 | 13392 ft | 347 kts | 232° |
| 2026-05-05 16:07 | 38.06730 | 24.60591 | 12892 ft | 345 kts | 233° |
| 2026-05-05 16:07 | 38.05586 | 24.57969 | 12378 ft | 338 kts | 255° |
| 2026-05-05 16:08 | 38.05300 | 24.55056 | 11883 ft | 332 kts | 273° |
| 2026-05-05 16:08 | 38.05399 | 24.52136 | 11401 ft | 330 kts | 275° |
| 2026-05-05 16:08 | 38.05528 | 24.49243 | 10908 ft | 328 kts | 275° |
| 2026-05-05 16:08 | 38.05666 | 24.46363 | 10401 ft | 326 kts | 275° |
| 2026-05-05 16:09 | 38.05813 | 24.43505 | 9905 ft | 324 kts | 275° |
| 2026-05-05 16:09 | 38.05962 | 24.40657 | 9426 ft | 323 kts | 275° |
| 2026-05-05 16:09 | 38.06112 | 24.37825 | 8933 ft | 321 kts | 275° |
| 2026-05-05 16:09 | 38.06264 | 24.35005 | 8442 ft | 320 kts | 275° |
| 2026-05-05 16:10 | 38.06590 | 24.32282 | 8289 ft | 306 kts | 284° |
| 2026-05-05 16:10 | 38.07076 | 24.29714 | 8176 ft | 293 kts | 285° |
| 2026-05-05 16:10 | 38.07556 | 24.27255 | 8061 ft | 282 kts | 285° |
| 2026-05-05 16:10 | 38.08024 | 24.24860 | 7809 ft | 278 kts | 285° |
| 2026-05-05 16:11 | 38.08484 | 24.22501 | 7602 ft | 271 kts | 285° |
| 2026-05-05 16:11 | 38.09777 | 24.15820 | 6343 ft | 259 kts | 285° |
| 2026-05-05 16:12 | 38.10168 | 24.13597 | 5639 ft | 261 kts | 277° |
| 2026-05-05 16:12 | 38.09350 | 24.09092 | 4357 ft | 266 kts | 242° |
| 2026-05-05 16:13 | 38.05310 | 24.04441 | 2904 ft | 252 kts | 218° |
| 2026-05-05 16:13 | 38.03943 | 24.03129 | 2565 ft | 241 kts | 218° |
| 2026-05-05 16:13 | 38.02636 | 24.01881 | 2250 ft | 230 kts | 218° |
| 2026-05-05 16:14 | 38.00204 | 23.99560 | 1679 ft | 208 kts | 217° |
| 2026-05-05 16:14 | 37.98100 | 23.97551 | 1182 ft | 171 kts | 217° |
| 2026-05-05 16:15 | 37.96402 | 23.95935 | 767 ft | 141 kts | 217° |
| 2026-05-05 16:15 | 37.94875 | 23.94478 | 401 ft | 136 kts | 216° |
| 2026-05-05 16:16 | 37.93563 | 23.93233 | 281 ft | 77 kts | 217° |
| 2026-05-05 16:16 | 37.93264 | 23.92949 | 280 ft | 21 kts | 214° |
| 2026-05-05 16:17 | 37.92973 | 23.92823 | 276 ft | 14 kts | 178° |
| 2026-05-05 16:17 | 37.92941 | 23.92914 | 273 ft | 15 kts | 51° |
| 2026-05-05 16:18 | 37.93140 | 23.93107 | 276 ft | 20 kts | 37° |
| 2026-05-05 16:18 | 37.93261 | 23.93223 | 277 ft | 23 kts | 36° |
| 2026-05-05 16:18 | 37.93425 | 23.93445 | 285 ft | 13 kts | 124° |
| 2026-05-05 16:19 | 37.93364 | 23.93550 | 280 ft | 16 kts | 127° |
| 2026-05-05 16:19 | 37.93289 | 23.93676 | 285 ft | 19 kts | 127° |
| 2026-05-05 16:19 | 37.93111 | 23.93973 | 286 ft | 20 kts | 126° |
| 2026-05-05 16:20 | 37.93187 | 23.94137 | 286 ft | 15 kts | 37° |
| 2026-05-05 16:20 | 37.93256 | 23.94340 | 286 ft | 17 kts | 126° |
| 2026-05-05 16:21 | 37.93187 | 23.94578 | 287 ft | 14 kts | 37° |
| 2026-05-05 16:22 | 37.93441 | 23.94740 | 290 ft | 9 kts | 310° |
| 2026-05-05 16:22 | 37.93465 | 23.94694 | 285 ft | 1 kts | 307° |
| 2026-05-05 16:23 | 37.93468 | 23.94690 | 285 ft | 0 kts | 307° |